createdAt,value
2019-02-23T00:01:41.819Z,3.93
2019-02-23T00:04:17.094Z,3.67
2019-02-23T00:06:52.908Z,5.47
2019-02-23T00:09:28.214Z,4.17
2019-02-23T00:12:04.677Z,4.30
2019-02-23T00:14:40.406Z,4.53
2019-02-23T00:17:15.759Z,4.03
2019-02-23T00:19:53.152Z,4.63
2019-02-23T00:22:28.266Z,5.43
2019-02-23T00:25:04.534Z,3.63
2019-02-23T00:27:39.576Z,3.20
2019-02-23T00:30:14.668Z,3.83
2019-02-23T00:32:50.074Z,4.33
2019-02-23T00:35:25.227Z,3.57
2019-02-23T00:38:00.045Z,2.97
2019-02-23T00:40:34.770Z,3.60
2019-02-23T00:43:10.541Z,3.23
2019-02-23T00:45:45.380Z,4.00
2019-02-23T00:48:20.779Z,4.17
2019-02-23T00:50:55.906Z,3.73
2019-02-23T00:53:31.268Z,4.53
2019-02-23T00:56:06.373Z,4.83
2019-02-23T00:58:41.429Z,3.57
2019-02-23T01:01:17.717Z,3.80
2019-02-23T01:03:52.612Z,3.60
2019-02-23T01:06:28.175Z,3.90
2019-02-23T01:09:03.565Z,3.90
2019-02-23T01:11:40.901Z,3.90
2019-02-23T01:14:15.916Z,3.73
2019-02-23T01:16:51.794Z,3.30
2019-02-23T01:19:26.861Z,3.73
2019-02-23T01:22:01.946Z,4.73
2019-02-23T01:24:36.993Z,3.97
2019-02-23T01:27:12.106Z,4.23
2019-02-23T01:29:47.143Z,4.47
2019-02-23T01:32:22.651Z,4.60
2019-02-23T01:34:57.446Z,4.03
2019-02-23T01:37:32.985Z,2.90
2019-02-23T01:40:10.090Z,3.43
2019-02-23T01:42:45.537Z,3.80
2019-02-23T01:45:21.250Z,3.07
2019-02-23T01:47:56.626Z,2.70
2019-02-23T01:50:40.666Z,2.20
2019-02-23T01:53:28.997Z,3.83
2019-02-23T01:56:04.075Z,3.33
2019-02-23T01:58:39.231Z,5.27
2019-02-23T02:01:14.334Z,4.13
2019-02-23T02:03:49.405Z,4.17
2019-02-23T02:06:24.439Z,4.27
2019-02-23T02:08:59.473Z,4.50
2019-02-23T02:11:34.578Z,4.87
2019-02-23T02:14:09.917Z,3.47
2019-02-23T02:20:19.063Z,4.60
2019-02-23T02:22:54.208Z,4.13
2019-02-23T02:25:29.549Z,2.40
2019-02-23T02:28:04.927Z,4.20
2019-02-23T02:30:39.962Z,4.03
2019-02-23T02:33:15.277Z,4.73
2019-02-23T02:35:51.296Z,5.13
2019-02-23T02:38:26.335Z,4.97
2019-02-23T02:41:01.440Z,3.70
2019-02-23T02:43:36.482Z,4.33
2019-02-23T02:46:11.504Z,4.10
2019-02-23T02:48:46.553Z,4.83
2019-02-23T02:51:23.576Z,5.00
2019-02-23T02:53:58.753Z,4.70
2019-02-23T02:56:36.581Z,4.27
2019-02-23T02:59:11.494Z,4.47
2019-02-23T03:01:46.543Z,4.17
2019-02-23T03:04:21.660Z,4.00
2019-02-23T03:06:58.138Z,5.97
2019-02-23T03:09:32.966Z,5.03
2019-02-23T03:12:07.694Z,5.83
2019-02-23T03:14:43.927Z,5.37
2019-02-23T03:17:20.128Z,6.67
2019-02-23T03:19:55.145Z,5.17
2019-02-23T03:22:30.221Z,3.47
2019-02-23T03:25:07.038Z,5.00
2019-02-23T03:27:42.158Z,3.13
2019-02-23T03:30:17.186Z,3.97
2019-02-23T03:32:51.957Z,5.17
2019-02-23T03:35:26.787Z,4.37
2019-02-23T03:38:02.043Z,5.80
2019-02-23T03:40:37.345Z,5.37
2019-02-23T03:43:12.417Z,6.13
2019-02-23T03:45:47.463Z,3.97
2019-02-23T03:48:22.842Z,6.60
2019-02-23T03:50:57.886Z,4.70
2019-02-23T03:53:33.367Z,5.10
2019-02-23T03:56:08.899Z,4.33
2019-02-23T03:58:43.583Z,4.87
2019-02-23T04:01:18.463Z,3.97
2019-02-23T04:03:53.397Z,6.13
2019-02-23T04:06:30.188Z,5.27
2019-02-23T04:09:05.967Z,4.07
2019-02-23T04:11:42.633Z,5.43
2019-02-23T04:14:17.405Z,5.40
2019-02-23T04:16:52.618Z,4.17
2019-02-23T04:19:27.203Z,4.47
2019-02-23T04:22:01.694Z,4.60
2019-02-23T04:24:37.193Z,4.33
2019-02-23T04:27:13.953Z,5.93
2019-02-23T04:29:49.186Z,4.17
2019-02-23T04:32:23.772Z,4.77
2019-02-23T04:34:58.287Z,5.80
2019-02-23T04:37:33.735Z,4.23
2019-02-23T04:40:08.353Z,5.30
2019-02-23T04:42:43.248Z,4.50
2019-02-23T04:45:18.873Z,5.47
2019-02-23T04:47:53.398Z,4.83
2019-02-23T04:50:28.246Z,6.07
2019-02-23T04:53:03.318Z,6.03
2019-02-23T04:55:38.403Z,5.80
2019-02-23T04:58:13.229Z,5.27
2019-02-23T05:00:47.808Z,6.60
2019-02-23T05:03:23.561Z,6.60
2019-02-23T05:05:59.320Z,5.50
2019-02-23T05:08:34.378Z,6.73
2019-02-23T05:11:09.401Z,4.77
2019-02-23T05:13:44.544Z,5.77
2019-02-23T05:16:19.580Z,5.20
2019-02-23T05:18:54.695Z,4.87
2019-02-23T05:21:30.182Z,4.97
2019-02-23T05:24:05.627Z,4.97
2019-02-23T05:26:40.719Z,4.23
2019-02-23T05:29:15.750Z,6.03
2019-02-23T05:31:50.786Z,5.00
2019-02-23T05:34:26.073Z,6.60
2019-02-23T05:37:02.180Z,5.20
2019-02-23T05:39:38.276Z,4.63
2019-02-23T05:42:13.939Z,5.83
2019-02-23T05:44:49.002Z,6.27
2019-02-23T05:47:24.067Z,4.93
2019-02-23T05:49:59.198Z,5.20
2019-02-23T05:52:39.908Z,6.00
2019-02-23T05:55:15.258Z,7.00
2019-02-23T05:57:50.330Z,5.60
2019-02-23T06:00:25.475Z,6.97
2019-02-23T06:03:02.032Z,5.50
2019-02-23T06:05:37.445Z,5.10
2019-02-23T06:08:14.429Z,6.40
2019-02-23T06:10:49.588Z,5.87
2019-02-23T06:13:24.899Z,6.53
2019-02-23T06:15:59.945Z,5.03
2019-02-23T06:18:34.966Z,6.33
2019-02-23T06:21:10.005Z,4.67
2019-02-23T06:23:45.129Z,6.50
2019-02-23T06:26:20.514Z,5.77
2019-02-23T06:28:55.554Z,6.67
2019-02-23T06:31:30.578Z,6.83
2019-02-23T06:34:15.565Z,6.87
2019-02-23T06:36:42.786Z,6.40
2019-02-23T06:39:17.843Z,5.80
2019-02-23T06:41:53.674Z,6.00
2019-02-23T06:44:28.393Z,6.37
2019-02-23T06:47:03.206Z,5.83
2019-02-23T06:49:38.086Z,5.33
2019-02-23T06:52:13.331Z,6.13
2019-02-23T06:54:48.250Z,5.70
2019-02-23T06:57:23.674Z,7.50
2019-02-23T06:59:58.761Z,4.97
2019-02-23T07:02:33.804Z,5.63
2019-02-23T07:05:08.985Z,6.57
2019-02-23T07:07:44.431Z,5.23
2019-02-23T07:10:19.518Z,5.83
2019-02-23T07:12:55.750Z,6.97
2019-02-23T07:15:31.288Z,6.40
2019-02-23T07:18:06.444Z,6.60
2019-02-23T07:20:44.579Z,7.07
2019-02-23T07:23:18.662Z,7.80
2019-02-23T07:25:54.197Z,7.60
2019-02-23T07:28:30.156Z,6.13
2019-02-23T07:31:04.955Z,6.73
2019-02-23T07:33:40.333Z,7.20
2019-02-23T07:36:15.379Z,6.83
2019-02-23T07:38:50.792Z,6.57
2019-02-23T07:41:25.587Z,5.50
2019-02-23T07:44:00.421Z,7.30
2019-02-23T07:46:35.810Z,7.77
2019-02-23T07:49:10.840Z,5.43
2019-02-23T07:51:46.387Z,6.33
2019-02-23T07:54:21.743Z,6.20
2019-02-23T07:56:58.077Z,8.17
2019-02-23T07:59:33.126Z,6.70
2019-02-23T08:02:08.235Z,7.87
2019-02-23T08:04:43.335Z,8.03
2019-02-23T08:07:18.750Z,6.60
2019-02-23T08:09:54.802Z,5.90
2019-02-23T08:12:29.872Z,7.03
2019-02-23T08:15:08.971Z,6.63
2019-02-23T08:17:45.644Z,7.00
2019-02-23T08:20:20.759Z,7.10
2019-02-23T08:22:55.849Z,7.43
2019-02-23T08:25:31.967Z,7.90
2019-02-23T08:28:08.067Z,6.63
2019-02-23T08:30:43.099Z,7.97
2019-02-23T08:33:17.749Z,7.17
2019-02-23T08:35:53.055Z,7.03
2019-02-23T08:38:28.496Z,7.27
2019-02-23T08:41:05.499Z,7.43
2019-02-23T08:43:41.560Z,6.83
2019-02-23T08:46:16.808Z,7.20
2019-02-23T08:48:52.448Z,6.90
2019-02-23T08:51:27.076Z,7.90
2019-02-23T08:54:01.719Z,5.03
2019-02-23T08:56:37.661Z,7.00
2019-02-23T08:59:13.422Z,6.97
2019-02-23T09:01:48.238Z,6.97
2019-02-23T09:04:22.772Z,6.57
2019-02-23T09:06:57.319Z,7.57
2019-02-23T09:09:32.315Z,6.97
2019-02-23T09:12:07.539Z,6.10
2019-02-23T09:14:42.719Z,5.67
2019-02-23T09:17:18.562Z,6.83
2019-02-23T09:19:56.775Z,6.67
2019-02-23T09:22:32.385Z,6.37
2019-02-23T09:25:09.627Z,6.73
2019-02-23T09:27:45.456Z,6.67
2019-02-23T09:30:21.028Z,5.30
2019-02-23T09:32:58.139Z,5.63
2019-02-23T09:35:33.074Z,6.33
2019-02-23T09:38:11.182Z,11.23
2019-02-23T09:40:46.871Z,6.03
2019-02-23T09:43:24.022Z,6.93
2019-02-23T09:45:59.755Z,8.03
2019-02-23T09:48:36.005Z,7.13
2019-02-23T09:51:12.947Z,6.67
2019-02-23T09:53:50.825Z,7.37
2019-02-23T09:56:25.882Z,6.47
2019-02-23T09:59:01.626Z,5.40
2019-02-23T10:01:37.523Z,7.77
2019-02-23T10:04:13.151Z,6.40
2019-02-23T10:06:48.880Z,6.77
2019-02-23T10:09:23.816Z,6.10
2019-02-23T10:11:58.977Z,6.33
2019-02-23T10:14:34.488Z,6.93
2019-02-23T10:17:10.382Z,6.67
2019-02-23T10:19:45.277Z,6.53
2019-02-23T10:22:20.328Z,6.50
2019-02-23T10:24:54.892Z,5.50
2019-02-23T10:27:30.083Z,5.87
2019-02-23T10:30:09.611Z,5.87
2019-02-23T10:32:44.518Z,5.73
2019-02-23T10:35:20.585Z,4.10
2019-02-23T10:37:59.694Z,5.40
2019-02-23T10:40:35.321Z,5.43
2019-02-23T10:43:10.220Z,5.07
2019-02-23T10:45:45.213Z,3.87
2019-02-23T10:48:20.105Z,5.53
2019-02-23T10:50:55.250Z,3.93
2019-02-23T10:53:32.785Z,6.20
2019-02-23T10:56:06.362Z,5.00
2019-02-23T10:58:41.951Z,5.70
2019-02-23T11:01:17.356Z,5.90
2019-02-23T11:03:52.587Z,5.53
2019-02-23T11:06:28.455Z,5.83
2019-02-23T11:09:06.313Z,11.13
2019-02-23T11:11:45.130Z,5.23
2019-02-23T11:14:26.133Z,4.63
2019-02-23T11:17:01.438Z,5.97
2019-02-23T11:19:37.014Z,5.07
2019-02-23T11:22:12.867Z,5.17
2019-02-23T11:24:52.428Z,5.27
2019-02-23T11:27:27.692Z,5.70
2019-02-23T11:30:04.940Z,5.53
2019-02-23T11:32:41.120Z,5.40
2019-02-23T11:35:17.872Z,5.37
2019-02-23T11:37:53.161Z,6.70
2019-02-23T11:40:28.777Z,5.07
2019-02-23T11:43:04.244Z,5.57
2019-02-23T11:45:39.522Z,5.70
2019-02-23T11:48:15.799Z,5.50
2019-02-23T11:50:51.942Z,5.00
2019-02-23T11:53:27.128Z,5.27
2019-02-23T11:56:01.933Z,5.30
2019-02-23T11:58:36.963Z,4.93
2019-02-23T12:01:12.143Z,5.27
2019-02-23T12:03:49.145Z,5.47
2019-02-23T12:06:25.271Z,5.60
2019-02-23T12:09:00.361Z,5.27
2019-02-23T12:11:36.731Z,5.77
2019-02-23T12:14:11.966Z,4.83
2019-02-23T12:16:47.180Z,5.43
2019-02-23T12:19:22.426Z,4.53
2019-02-23T12:21:57.512Z,6.00
2019-02-23T12:24:34.629Z,5.50
2019-02-23T12:27:11.251Z,5.60
2019-02-23T12:29:47.617Z,5.73
2019-02-23T12:32:22.822Z,5.87
2019-02-23T12:34:57.895Z,5.37
2019-02-23T12:37:34.967Z,5.60
2019-02-23T12:40:12.476Z,7.60
2019-02-23T12:42:49.037Z,5.43
2019-02-23T12:45:24.181Z,5.77
2019-02-23T12:47:59.359Z,5.33
2019-02-23T12:50:34.425Z,5.13
2019-02-23T12:53:11.043Z,5.53
2019-02-23T12:55:48.429Z,5.40
2019-02-23T12:58:24.462Z,5.93
2019-02-23T13:00:59.494Z,4.93
2019-02-23T13:03:34.583Z,4.13
2019-02-23T13:06:11.080Z,4.37
2019-02-23T13:09:07.391Z,5.07
2019-02-23T13:11:53.836Z,6.17
2019-02-23T13:14:34.915Z,4.73
2019-02-23T13:17:17.639Z,4.77
2019-02-23T13:20:13.249Z,5.77
2019-02-23T13:23:10.206Z,5.07
2019-02-23T13:26:18.461Z,4.50
2019-02-23T13:29:17.925Z,5.43
2019-02-23T13:32:13.834Z,5.10
2019-02-23T13:35:10.735Z,5.80
2019-02-23T13:37:48.876Z,5.73
2019-02-23T13:40:48.036Z,6.03
2019-02-23T13:43:45.148Z,5.33
2019-02-23T13:46:42.932Z,5.77
2019-02-23T13:49:46.767Z,6.53
2019-02-23T13:52:24.904Z,4.00
2019-02-23T13:55:09.398Z,4.80
2019-02-23T13:57:50.722Z,3.77
2019-02-23T14:00:32.379Z,4.47
2019-02-23T14:03:38.353Z,5.10
2019-02-23T14:06:38.918Z,4.53
2019-02-23T14:09:29.537Z,3.97
2019-02-23T14:12:20.412Z,5.13
2019-02-23T14:15:16.593Z,3.60
2019-02-23T14:18:04.099Z,4.60
2019-02-23T14:20:48.775Z,4.43
2019-02-23T14:23:39.301Z,4.97
2019-02-23T14:26:34.079Z,4.40
2019-02-23T14:29:21.643Z,4.60
2019-02-23T14:32:03.520Z,5.83
2019-02-23T14:34:51.225Z,6.13
2019-02-23T14:37:36.058Z,5.93
2019-02-23T14:40:21.146Z,4.73
2019-02-23T14:43:08.920Z,5.40
2019-02-23T14:46:20.911Z,4.33
2019-02-23T14:49:06.545Z,4.60
2019-02-23T14:52:21.877Z,4.23
2019-02-23T14:55:12.447Z,5.63
2019-02-23T14:57:59.762Z,4.70
2019-02-23T15:00:59.225Z,3.87
2019-02-23T15:03:42.422Z,3.90
2019-02-23T15:06:26.997Z,5.13
2019-02-23T15:09:21.595Z,4.33
2019-02-23T15:12:12.942Z,5.03
2019-02-23T15:15:00.561Z,6.63
2019-02-23T15:17:44.875Z,5.27
2019-02-23T15:20:26.180Z,5.13
2019-02-23T15:23:17.403Z,5.43
2019-02-23T15:26:18.745Z,5.80
2019-02-23T15:29:07.195Z,5.40
2019-02-23T15:31:48.050Z,4.23
2019-02-23T15:34:48.868Z,4.97
2019-02-23T15:37:29.771Z,4.60
2019-02-23T15:40:17.819Z,5.13
2019-02-23T15:42:59.713Z,5.53
2019-02-23T15:46:00.448Z,5.60
2019-02-23T15:48:58.124Z,6.20
2019-02-23T15:51:34.726Z,4.97
2019-02-23T15:54:10.152Z,5.70
2019-02-23T15:56:45.680Z,5.23
2019-02-23T15:59:21.018Z,4.57
2019-02-23T16:01:56.174Z,5.73
2019-02-23T16:04:31.315Z,4.10
2019-02-23T16:07:06.447Z,4.87
2019-02-23T16:09:41.479Z,4.73
2019-02-23T16:12:16.538Z,6.03
2019-02-23T16:14:51.643Z,5.53
2019-02-23T16:17:26.666Z,4.60
2019-02-23T16:20:01.721Z,4.77
2019-02-23T16:22:38.717Z,6.27
2019-02-23T16:25:13.570Z,6.77
2019-02-23T16:27:48.965Z,6.47
2019-02-23T16:30:24.111Z,5.97
2019-02-23T16:32:58.978Z,6.67
2019-02-23T16:35:34.101Z,7.07
2019-02-23T16:38:09.259Z,6.50
2019-02-23T16:40:44.649Z,5.67
2019-02-23T16:43:19.730Z,5.57
2019-02-23T16:45:54.748Z,6.20
2019-02-23T16:48:31.456Z,5.53
2019-02-23T16:51:06.476Z,5.57
2019-02-23T16:53:41.969Z,6.13
2019-02-23T16:56:17.008Z,6.17
2019-02-23T16:58:53.059Z,5.80
2019-02-23T17:01:28.066Z,8.70
2019-02-23T17:04:04.062Z,6.20
2019-02-23T17:06:39.090Z,7.70
2019-02-23T17:09:14.110Z,7.20
2019-02-23T17:11:49.489Z,6.10
2019-02-23T17:14:25.545Z,7.20
2019-02-23T17:17:02.629Z,7.73
2019-02-23T17:19:37.866Z,7.30
2019-02-23T17:22:12.885Z,7.27
2019-02-23T17:24:48.994Z,5.70
2019-02-23T17:27:35.582Z,6.67
2019-02-23T17:30:01.086Z,7.23
2019-02-23T17:32:36.520Z,7.43
2019-02-23T17:35:11.855Z,6.13
2019-02-23T17:37:47.805Z,6.93
2019-02-23T17:40:22.838Z,6.80
2019-02-23T17:42:58.198Z,6.57
2019-02-23T17:45:33.206Z,7.10
2019-02-23T17:48:08.561Z,7.27
2019-02-23T17:50:43.909Z,6.83
2019-02-23T17:53:18.966Z,8.33
2019-02-23T17:55:54.075Z,6.23
2019-02-23T17:58:29.180Z,7.50
2019-02-23T18:01:04.618Z,7.03
2019-02-23T18:03:39.640Z,7.03
2019-02-23T18:06:15.051Z,7.83
2019-02-23T18:08:50.395Z,6.83
2019-02-23T18:11:25.846Z,7.40
2019-02-23T18:14:00.881Z,8.03
2019-02-23T18:16:36.728Z,7.57
2019-02-23T18:19:12.654Z,7.37
2019-02-23T18:21:48.538Z,8.60
2019-02-23T18:24:24.836Z,7.60
2019-02-23T18:26:59.938Z,7.87
2019-02-23T18:29:36.294Z,7.93
2019-02-23T18:32:11.314Z,8.70
2019-02-23T18:34:47.172Z,8.37
2019-02-23T18:37:22.638Z,8.53
2019-02-23T18:39:58.699Z,8.53
2019-02-23T18:42:34.722Z,7.93
2019-02-23T18:45:10.104Z,8.37
2019-02-23T18:47:45.823Z,9.27
2019-02-23T18:50:21.926Z,9.50
2019-02-23T18:52:57.218Z,10.17
2019-02-23T18:55:40.622Z,9.13
2019-02-23T18:58:09.016Z,9.93
2019-02-23T19:00:45.028Z,10.30
2019-02-23T19:03:20.502Z,9.60
2019-02-23T19:05:55.816Z,10.57
2019-02-23T19:08:31.833Z,11.43
2019-02-23T19:11:06.870Z,9.63
2019-02-23T19:13:42.376Z,10.77
2019-02-23T19:16:17.411Z,10.80
2019-02-23T19:18:52.510Z,11.97
2019-02-23T19:21:28.787Z,12.43
2019-02-23T19:24:04.534Z,10.30
2019-02-23T19:26:39.882Z,12.87
2019-02-23T19:29:14.981Z,13.20
2019-02-23T19:31:50.017Z,12.27
2019-02-23T19:34:25.503Z,12.40
2019-02-23T19:37:00.513Z,11.73
2019-02-23T19:39:35.566Z,11.20
2019-02-23T19:42:10.670Z,11.60
2019-02-23T19:44:46.653Z,12.20
2019-02-23T19:47:21.698Z,11.80
2019-02-23T19:49:58.529Z,12.17
2019-02-23T19:52:33.680Z,11.90
2019-02-23T19:55:11.926Z,11.53
2019-02-23T19:57:47.115Z,11.27
2019-02-23T20:00:22.507Z,12.70
2019-02-23T20:02:57.856Z,13.27
2019-02-23T20:05:33.300Z,11.70
2019-02-23T20:08:09.287Z,12.90
2019-02-23T20:10:44.327Z,11.17
2019-02-23T20:13:19.366Z,12.27
2019-02-23T20:15:54.863Z,11.40
2019-02-23T20:18:30.311Z,12.70
2019-02-23T20:21:06.400Z,11.30
2019-02-23T20:23:41.413Z,11.47
2019-02-23T20:26:16.582Z,11.37
2019-02-23T20:28:51.724Z,12.30
2019-02-23T20:31:27.161Z,11.47
2019-02-23T20:34:02.298Z,10.97
2019-02-23T20:36:37.398Z,12.23
2019-02-23T20:39:12.445Z,11.07
2019-02-23T20:41:48.087Z,11.07
2019-02-23T20:44:23.544Z,11.37
2019-02-23T20:46:58.973Z,11.33
2019-02-23T20:49:34.463Z,11.53
2019-02-23T20:52:09.549Z,11.43
2019-02-23T20:54:44.701Z,10.60
2019-02-23T20:57:19.832Z,10.67
2019-02-23T20:59:54.941Z,10.63
2019-02-23T21:02:30.414Z,10.47
2019-02-23T21:05:08.409Z,10.10
2019-02-23T21:07:43.769Z,12.13
2019-02-23T21:10:19.212Z,12.97
2019-02-23T21:12:54.650Z,12.53
2019-02-23T21:15:30.111Z,13.93
2019-02-23T21:18:05.225Z,13.17
2019-02-23T21:20:40.759Z,11.93
2019-02-23T21:23:16.059Z,13.23
2019-02-23T21:25:52.079Z,12.43
2019-02-23T21:28:27.111Z,12.10
2019-02-23T21:31:03.389Z,10.73
2019-02-23T21:33:38.438Z,10.70
2019-02-23T21:36:13.537Z,9.20
2019-02-23T21:38:48.606Z,10.60
2019-02-23T21:41:24.624Z,10.10
2019-02-23T21:43:59.649Z,9.93
2019-02-23T21:46:35.027Z,10.13
2019-02-23T21:49:10.475Z,10.83
2019-02-23T21:51:45.487Z,8.60
2019-02-23T21:54:21.255Z,9.90
2019-02-23T21:56:56.718Z,11.07
2019-02-23T21:59:32.260Z,9.93
2019-02-23T22:02:08.831Z,10.83
2019-02-23T22:04:44.267Z,12.90
2019-02-23T22:07:19.913Z,9.07
2019-02-23T22:09:55.522Z,12.47
2019-02-23T22:12:30.910Z,38.93
2019-02-23T22:15:07.544Z,11.83
2019-02-23T22:17:42.576Z,11.33
2019-02-23T22:20:17.684Z,9.73
2019-02-23T22:22:54.616Z,9.10
2019-02-23T22:25:29.470Z,9.60
2019-02-23T22:28:04.929Z,10.20
2019-02-23T22:30:40.010Z,9.83
2019-02-23T22:33:15.068Z,10.10
2019-02-23T22:35:50.089Z,9.33
2019-02-23T22:38:25.212Z,11.80
2019-02-23T22:41:00.238Z,10.60
2019-02-23T22:43:35.285Z,11.60
2019-02-23T22:46:10.313Z,10.30
2019-02-23T22:48:46.317Z,10.90
2019-02-23T22:51:21.338Z,9.83
2019-02-23T22:53:56.975Z,10.97
2019-02-23T22:56:32.342Z,11.23
2019-02-23T22:59:08.263Z,11.87
2019-02-23T23:01:45.186Z,13.43
2019-02-23T23:04:20.276Z,11.27
2019-02-23T23:06:55.669Z,12.17
2019-02-23T23:09:31.729Z,11.13
2019-02-23T23:12:06.839Z,13.30
2019-02-23T23:14:42.520Z,12.87
2019-02-23T23:17:17.559Z,12.07
2019-02-23T23:19:52.586Z,12.43
2019-02-23T23:22:27.924Z,10.83
2019-02-23T23:25:03.014Z,11.47
2019-02-23T23:27:38.147Z,11.20
2019-02-23T23:30:13.176Z,11.20
2019-02-23T23:32:48.469Z,11.57
2019-02-23T23:35:23.521Z,11.47
2019-02-23T23:37:58.945Z,12.53
2019-02-23T23:40:34.874Z,14.13
2019-02-23T23:43:10.345Z,11.70
2019-02-23T23:45:45.379Z,12.20
2019-02-23T23:48:20.722Z,12.87
2019-02-23T23:50:55.769Z,13.43
2019-02-23T23:53:31.103Z,14.57
2019-02-23T23:56:06.448Z,15.10
2019-02-23T23:58:41.789Z,14.47
